Time;durP1;ratioP1;P1;durP2;ratioP2;P2;SDS_P1;SDS_P2;PMS_P1;PMS_P2;Temp;Humidity;BMP_temperature;BMP_pressure;BME280_temperature;BME280_humidity;BME280_pressure;Samples;Min_cycle;Max_cycle;Signal;HPM_P1;HPM_P2
2020/12/16 00:01:08;;;;;;;19.03;17.10;;;7.90;99.90;;;;;;5094176;28;20169;-65
2020/12/16 00:03:34;;;;;;;20.60;18.57;;;7.80;99.90;;;;;;5093217;28;20638;-65
2020/12/16 00:06:00;;;;;;;20.13;18.20;;;7.80;99.90;;;;;;5094265;28;20157;-65
2020/12/16 00:08:25;;;;;;;21.20;17.90;;;7.80;99.90;;;;;;5093067;28;20592;-65
2020/12/16 00:10:51;;;;;;;19.87;17.90;;;7.80;99.90;;;;;;5092911;28;20430;-65
2020/12/16 00:13:17;;;;;;;18.70;16.77;;;7.90;99.90;;;;;;5093992;28;20161;-65
2020/12/16 00:15:44;;;;;;;19.57;17.57;;;7.90;99.90;;;;;;5094003;28;20242;-65
2020/12/16 00:18:10;;;;;;;20.67;18.57;;;7.90;99.90;;;;;;5092751;28;20174;-65
2020/12/16 00:20:35;;;;;;;19.57;17.67;;;8.00;99.90;;;;;;5093072;28;20438;-65
2020/12/16 00:23:01;;;;;;;19.87;17.87;;;8.00;99.90;;;;;;5093754;28;20198;-65
2020/12/16 00:25:26;;;;;;;18.90;17.13;;;8.10;99.90;;;;;;5093752;28;20570;-65
2020/12/16 00:27:52;;;;;;;20.37;18.27;;;8.10;99.90;;;;;;5074131;28;20179;-65
2020/12/16 00:30:17;;;;;;;17.10;15.50;;;8.10;99.90;;;;;;5073518;28;20525;-65
2020/12/16 00:32:43;;;;;;;19.50;17.53;;;8.20;99.90;;;;;;5073238;28;20180;-65
2020/12/16 00:35:09;;;;;;;17.67;16.07;;;8.20;99.90;;;;;;5073428;28;20185;-65
2020/12/16 00:37:40;;;;;;;17.07;15.43;;;8.10;99.90;;;;;;5073355;28;20557;-65
2020/12/16 00:40:07;;;;;;;17.73;15.80;;;8.10;99.90;;;;;;5073298;28;20937;-65
2020/12/16 00:42:33;;;;;;;17.03;15.23;;;8.10;99.90;;;;;;5072187;28;20492;-65
2020/12/16 00:44:59;;;;;;;19.57;16.47;;;8.10;99.90;;;;;;5073190;28;20400;-65
2020/12/16 00:47:25;;;;;;;19.17;17.13;;;8.20;99.90;;;;;;5071873;28;20879;-65
2020/12/16 00:49:51;;;;;;;18.30;16.50;;;8.10;99.90;;;;;;5079362;28;20429;-64
2020/12/16 00:52:17;;;;;;;18.93;16.77;;;8.20;99.90;;;;;;5093252;28;20544;-65
2020/12/16 00:54:43;;;;;;;18.17;16.37;;;8.10;99.90;;;;;;5093538;28;20609;-65
2020/12/16 00:57:09;;;;;;;18.00;16.10;;;8.10;99.90;;;;;;5093443;28;20390;-65
2020/12/16 00:59:34;;;;;;;18.20;16.37;;;8.10;99.90;;;;;;5092701;28;20892;-65
2020/12/16 01:02:04;;;;;;;18.40;16.53;;;8.10;99.90;;;;;;5073072;28;20184;-65
2020/12/16 01:04:29;;;;;;;18.93;17.13;;;8.10;99.90;;;;;;5073215;28;20163;-65
2020/12/16 01:06:55;;;;;;;19.00;17.10;;;8.20;99.90;;;;;;5072818;28;20479;-65
2020/12/16 01:09:20;;;;;;;20.57;18.37;;;8.20;99.90;;;;;;5072979;28;20163;-65
2020/12/16 01:11:46;;;;;;;19.10;17.20;;;8.20;99.90;;;;;;5072964;28;20292;-65
2020/12/16 01:14:11;;;;;;;18.00;16.30;;;8.10;99.90;;;;;;5072763;28;20220;-65
2020/12/16 01:16:37;;;;;;;20.20;18.20;;;8.10;99.90;;;;;;5073417;28;20161;-65
2020/12/16 01:19:05;;;;;;;22.00;18.07;;;8.10;99.90;;;;;;5074776;28;20155;-65
2020/12/16 01:21:34;;;;;;;19.43;16.30;;;8.00;99.90;;;;;;5078421;28;20196;-65
2020/12/16 01:23:59;;;;;;;20.80;18.57;;;7.90;99.90;;;;;;5073045;28;20398;-65
2020/12/16 01:26:25;;;;;;;20.27;18.13;;;7.90;99.90;;;;;;5072874;28;20461;-65
2020/12/16 01:28:50;;;;;;;23.37;18.90;;;7.80;99.90;;;;;;5073021;28;20219;-65
2020/12/16 01:31:16;;;;;;;21.77;19.57;;;7.80;99.90;;;;;;5072791;28;20186;-65
2020/12/16 01:33:41;;;;;;;21.10;18.67;;;7.70;99.90;;;;;;5073764;28;20553;-65
2020/12/16 01:36:09;;;;;;;21.30;18.53;;;7.70;99.90;;;;;;5092861;28;20193;-65
2020/12/16 01:38:34;;;;;;;22.50;19.37;;;7.70;99.90;;;;;;5092980;28;20230;-65
2020/12/16 01:41:05;;;;;;;22.10;19.80;;;7.70;99.90;;;;;;5092627;28;20400;-65
2020/12/16 01:43:35;;;;;;;20.77;18.00;;;7.70;99.90;;;;;;5092898;28;20157;-65
2020/12/16 01:46:00;;;;;;;21.67;19.37;;;7.70;99.90;;;;;;5091781;28;20424;-65
2020/12/16 01:48:26;;;;;;;20.50;17.50;;;7.70;99.90;;;;;;5092681;28;20392;-65
2020/12/16 01:50:52;;;;;;;20.97;18.73;;;7.70;99.90;;;;;;5087469;28;20662;-65
2020/12/16 01:53:19;;;;;;;20.87;18.20;;;7.70;99.90;;;;;;5092670;28;20206;-65
2020/12/16 01:55:46;;;;;;;22.80;19.00;;;7.80;99.90;;;;;;5096536;28;20158;-65
2020/12/16 01:58:16;;;;;;;21.50;19.40;;;7.80;99.90;;;;;;5095568;28;20392;-65
2020/12/16 02:00:42;;;;;;;23.03;19.83;;;7.90;99.90;;;;;;5096460;28;20440;-65
2020/12/16 02:03:11;;;;;;;20.90;18.73;;;7.90;99.90;;;;;;5096648;28;20759;-65
2020/12/16 02:05:39;;;;;;;23.37;20.00;;;7.90;99.90;;;;;;5096532;28;20395;-65
2020/12/16 02:08:08;;;;;;;21.17;18.97;;;8.00;99.90;;;;;;5091624;28;20413;-65
2020/12/16 02:10:34;;;;;;;21.60;19.33;;;7.90;99.90;;;;;;5075905;28;20411;-65
2020/12/16 02:13:00;;;;;;;20.80;18.70;;;7.90;99.90;;;;;;5075966;28;20481;-65
2020/12/16 02:15:25;;;;;;;23.50;21.00;;;7.90;99.90;;;;;;5076261;28;20394;-65
2020/12/16 02:17:51;;;;;;;20.00;17.93;;;7.90;99.90;;;;;;5076143;28;20163;-65
2020/12/16 02:20:16;;;;;;;20.57;18.40;;;7.90;99.90;;;;;;5078041;28;20255;-65
2020/12/16 02:22:48;;;;;;;20.60;18.40;;;7.90;99.90;;;;;;5096338;28;20170;-64
2020/12/16 02:25:13;;;;;;;20.10;17.90;;;7.90;99.90;;;;;;5088974;28;20187;-65
2020/12/16 02:27:40;;;;;;;20.37;18.20;;;8.00;99.90;;;;;;5075691;28;20398;-65
2020/12/16 02:30:08;;;;;;;20.77;18.57;;;8.00;99.90;;;;;;5074641;28;20165;-65
2020/12/16 02:32:34;;;;;;;21.17;18.83;;;8.00;99.90;;;;;;5075873;28;20507;-65
2020/12/16 02:35:00;;;;;;;21.87;19.57;;;8.00;99.90;;;;;;5075546;28;20420;-65
2020/12/16 02:37:25;;;;;;;20.50;18.40;;;8.00;99.90;;;;;;5075563;28;20430;-65
2020/12/16 02:39:51;;;;;;;22.77;18.10;;;8.00;99.90;;;;;;5075755;28;20624;-65
2020/12/16 02:42:28;;;;;;;21.43;17.43;;;8.00;99.90;;;;;;5076361;28;20662;-65
2020/12/16 02:44:57;;;;;;;20.07;17.20;;;8.00;99.90;;;;;;5074520;28;20881;-65
2020/12/16 02:47:22;;;;;;;20.40;18.30;;;8.00;99.90;;;;;;5075469;28;20391;-64
2020/12/16 02:49:48;;;;;;;20.10;18.03;;;8.00;99.90;;;;;;5075454;28;20917;-65
2020/12/16 02:52:14;;;;;;;20.87;18.67;;;8.00;99.90;;;;;;5093462;28;20464;-65
2020/12/16 02:54:39;;;;;;;22.17;18.27;;;7.90;99.90;;;;;;5095575;28;20159;-65
2020/12/16 02:57:05;;;;;;;19.93;17.83;;;7.90;99.90;;;;;;5095760;28;20159;-65
2020/12/16 02:59:31;;;;;;;19.17;16.77;;;7.90;99.90;;;;;;5087230;28;20718;-65
2020/12/16 03:01:57;;;;;;;21.67;17.47;;;7.90;99.90;;;;;;5075182;28;20155;-65
2020/12/16 03:04:25;;;;;;;19.03;17.07;;;8.00;99.90;;;;;;5074752;28;20402;-65
2020/12/16 03:06:54;;;;;;;19.63;17.53;;;8.00;99.90;;;;;;5075458;28;20403;-65
2020/12/16 03:09:21;;;;;;;20.13;17.87;;;8.00;99.90;;;;;;5073718;28;20430;-66
2020/12/16 03:11:52;;;;;;;18.43;16.53;;;8.00;99.90;;;;;;5073809;28;21026;-66
2020/12/16 03:14:18;;;;;;;19.70;17.60;;;8.00;99.90;;;;;;5074930;28;20389;-65
2020/12/16 03:16:44;;;;;;;20.00;17.43;;;8.00;99.90;;;;;;5076285;28;20783;-65
2020/12/16 03:19:09;;;;;;;19.20;17.30;;;7.90;99.90;;;;;;5074907;28;20493;-65
2020/12/16 03:21:35;;;;;;;18.50;16.67;;;7.90;99.90;;;;;;5075142;28;20207;-65
2020/12/16 03:24:00;;;;;;;19.73;17.73;;;7.80;99.90;;;;;;5074672;28;20169;-66
2020/12/16 03:26:26;;;;;;;19.70;17.70;;;7.80;99.90;;;;;;5074759;28;20167;-66
2020/12/16 03:28:51;;;;;;;21.87;18.73;;;7.70;99.90;;;;;;5074829;28;20618;-65
2020/12/16 03:31:17;;;;;;;19.60;17.70;;;7.70;99.90;;;;;;5074504;28;20195;-65
2020/12/16 03:33:44;;;;;;;19.53;17.53;;;7.60;99.90;;;;;;5084753;28;20189;-65
2020/12/16 03:36:14;;;;;;;22.03;19.07;;;7.60;99.90;;;;;;5094755;28;20152;-65
2020/12/16 03:38:40;;;;;;;19.90;17.80;;;7.60;99.90;;;;;;5094761;28;20872;-66
2020/12/16 03:41:06;;;;;;;20.77;18.60;;;7.50;99.90;;;;;;5093583;28;20442;-66
2020/12/16 03:43:31;;;;;;;20.83;18.60;;;7.50;99.90;;;;;;5094538;28;20794;-65
2020/12/16 03:45:57;;;;;;;20.60;18.50;;;7.50;99.90;;;;;;5094534;28;20166;-65
2020/12/16 03:48:22;;;;;;;20.43;18.30;;;7.50;99.90;;;;;;5075250;28;20177;-65
2020/12/16 03:50:48;;;;;;;20.07;17.97;;;7.40;99.90;;;;;;5084637;28;20188;-65
2020/12/16 03:53:13;;;;;;;19.30;17.27;;;7.40;99.90;;;;;;5094280;28;20182;-66
2020/12/16 03:55:39;;;;;;;22.20;19.10;;;7.40;99.90;;;;;;5094633;28;20163;-65
2020/12/16 03:58:04;;;;;;;20.13;18.03;;;7.30;99.90;;;;;;5094276;28;20188;-65
2020/12/16 04:00:30;;;;;;;21.60;19.10;;;7.20;99.90;;;;;;5094204;28;20192;-65
2020/12/16 04:02:55;;;;;;;21.10;18.70;;;7.20;99.90;;;;;;5094192;28;20166;-65
2020/12/16 04:05:21;;;;;;;21.50;18.63;;;7.20;99.90;;;;;;5094131;28;20157;-65
2020/12/16 04:07:46;;;;;;;23.57;18.37;;;7.10;99.90;;;;;;5093403;28;20209;-65
2020/12/16 04:10:12;;;;;;;22.33;18.53;;;7.10;99.90;;;;;;5094488;28;20210;-66
2020/12/16 04:12:38;;;;;;;22.33;19.93;;;7.00;99.90;;;;;;5093780;28;20291;-65
2020/12/16 04:15:04;;;;;;;24.63;19.10;;;7.00;99.90;;;;;;5094223;28;20154;-65
2020/12/16 04:17:32;;;;;;;22.60;20.20;;;7.00;99.90;;;;;;5081689;28;20186;-65
2020/12/16 04:19:59;;;;;;;21.87;19.40;;;7.10;99.90;;;;;;5073595;28;20433;-66
2020/12/16 04:22:25;;;;;;;23.30;19.40;;;7.10;99.90;;;;;;5072801;28;20752;-65
2020/12/16 04:24:50;;;;;;;25.53;21.27;;;7.10;99.90;;;;;;5084596;28;20425;-65
2020/12/16 04:27:16;;;;;;;22.97;19.73;;;7.00;99.90;;;;;;5093863;28;20396;-65
2020/12/16 04:29:42;;;;;;;23.33;19.83;;;7.00;99.90;;;;;;5093713;28;20190;-65
2020/12/16 04:32:07;;;;;;;24.40;18.97;;;7.00;99.90;;;;;;5093576;28;20863;-65
2020/12/16 04:34:33;;;;;;;24.97;20.87;;;6.90;99.90;;;;;;5093771;28;20162;-65
2020/12/16 04:36:58;;;;;;;23.00;18.97;;;6.90;99.90;;;;;;5093626;28;20169;-65
2020/12/16 04:39:26;;;;;;;22.20;18.43;;;6.90;99.90;;;;;;5093754;28;20176;-65
2020/12/16 04:41:52;;;;;;;25.77;19.67;;;6.90;99.90;;;;;;5092546;28;20185;-65
2020/12/16 04:44:18;;;;;;;25.47;20.03;;;6.90;99.90;;;;;;5093471;28;20395;-65
2020/12/16 04:46:44;;;;;;;24.70;19.50;;;6.90;99.90;;;;;;5085799;28;20535;-65
2020/12/16 04:49:10;;;;;;;23.57;19.67;;;6.90;99.90;;;;;;5073308;28;20154;-65
2020/12/16 04:51:40;;;;;;;23.50;18.33;;;6.90;99.90;;;;;;5073140;28;20194;-65
2020/12/16 04:54:06;;;;;;;29.17;21.63;;;6.90;99.90;;;;;;5073481;28;20393;-66
2020/12/16 04:56:33;;;;;;;23.03;20.13;;;7.00;99.90;;;;;;5073222;28;20747;-65
2020/12/16 04:58:59;;;;;;;23.40;19.77;;;7.00;99.90;;;;;;5083560;28;20680;-65
2020/12/16 05:01:25;;;;;;;23.67;19.83;;;7.00;99.90;;;;;;5093292;28;20396;-65
2020/12/16 05:03:50;;;;;;;23.30;19.07;;;7.00;99.90;;;;;;5092081;28;20174;-65
2020/12/16 05:09:13;;;;;;;23.20;19.10;;;6.90;99.90;;;;;;5111023;27;20513;-65
2020/12/16 05:11:45;;;;;;;22.40;19.03;;;6.90;99.90;;;;;;5111106;28;20475;-66
2020/12/16 05:14:14;;;;;;;25.30;19.43;;;6.90;99.90;;;;;;5110998;28;20394;-66
2020/12/16 05:22:28;;;;;;;24.40;19.13;;;6.80;99.90;;;;;;5111108;27;20503;-65
2020/12/16 05:24:57;;;;;;;24.70;19.90;;;6.80;99.90;;;;;;5111076;28;20752;-65
2020/12/16 05:27:25;;;;;;;22.07;18.63;;;6.80;99.90;;;;;;5109736;28;20482;-65
2020/12/16 05:30:00;;;;;;;25.27;19.63;;;6.80;99.90;;;;;;5110858;28;20751;-65
2020/12/16 05:32:30;;;;;;;24.73;19.97;;;6.80;99.90;;;;;;5102696;28;20492;-65
2020/12/16 05:34:57;;;;;;;27.17;19.90;;;6.80;99.90;;;;;;5089279;28;20418;-65
2020/12/16 05:37:30;;;;;;;22.40;20.00;;;6.80;99.90;;;;;;5090313;28;20473;-65
2020/12/16 05:40:01;;;;;;;23.50;19.37;;;6.80;99.90;;;;;;5090068;28;20379;-65
2020/12/16 05:42:28;;;;;;;23.27;18.70;;;6.70;99.90;;;;;;5089141;28;20443;-65
2020/12/16 05:44:58;;;;;;;26.47;20.87;;;6.80;99.90;;;;;;5090077;28;20399;-65
2020/12/16 05:47:24;;;;;;;28.90;21.60;;;6.80;99.90;;;;;;5103983;28;20915;-65
2020/12/16 05:49:50;;;;;;;35.07;23.67;;;6.80;99.90;;;;;;5099403;28;20487;-65
2020/12/16 05:52:16;;;;;;;38.80;27.87;;;6.80;99.90;;;;;;5089927;28;20393;-65
2020/12/16 05:54:47;;;;;;;34.63;25.63;;;6.80;99.90;;;;;;5088790;28;20166;-65
2020/12/16 06:00:10;;;;;;;33.77;26.00;;;6.80;99.90;;;;;;5110903;27;20506;-65
2020/12/16 06:02:39;;;;;;;33.80;26.10;;;6.70;99.90;;;;;;5110877;28;20396;-66
2020/12/16 06:05:07;;;;;;;36.67;24.70;;;6.60;99.90;;;;;;5110790;28;20413;-65
2020/12/16 06:07:38;;;;;;;31.67;24.60;;;6.60;99.90;;;;;;5092343;28;20890;-66
2020/12/16 06:10:03;;;;;;;34.53;24.00;;;6.60;99.90;;;;;;5090769;28;20378;-66
2020/12/16 06:12:29;;;;;;;25.43;20.30;;;6.50;99.90;;;;;;5089186;28;20384;-65
2020/12/16 06:15:05;;;;;;;28.13;21.60;;;6.50;99.90;;;;;;5090421;28;20525;-66
2020/12/16 06:17:37;;;;;;;28.30;21.67;;;6.50;99.90;;;;;;5106017;28;20262;-65
2020/12/16 06:20:05;;;;;;;26.40;20.60;;;6.50;99.90;;;;;;5110423;28;20962;-65
2020/12/16 06:22:33;;;;;;;27.90;21.50;;;6.50;99.90;;;;;;5109026;28;20396;-65
2020/12/16 06:25:04;;;;;;;26.00;20.43;;;6.50;99.90;;;;;;5110692;28;20976;-65
2020/12/16 06:27:36;;;;;;;29.80;22.20;;;6.50;99.90;;;;;;5109245;28;20377;-65
2020/12/16 06:30:04;;;;;;;26.20;21.20;;;6.50;99.90;;;;;;5109545;28;20393;-66
2020/12/16 06:32:40;;;;;;;30.47;23.30;;;6.50;99.90;;;;;;5110555;28;20392;-65
2020/12/16 06:35:12;;;;;;;33.47;22.20;;;6.60;99.90;;;;;;5108925;28;20494;-66
2020/12/16 06:37:38;;;;;;;31.17;22.30;;;6.60;99.90;;;;;;5110320;28;20390;-65
2020/12/16 06:40:03;;;;;;;30.60;21.80;;;6.70;99.90;;;;;;5109260;28;20436;-65
2020/12/16 06:42:32;;;;;;;28.00;20.90;;;6.80;99.90;;;;;;5110367;28;20186;-65
2020/12/16 06:45:09;;;;;;;26.60;21.07;;;6.80;99.90;;;;;;5110294;28;20611;-65
2020/12/16 06:47:34;;;;;;;25.97;19.43;;;6.90;99.90;;;;;;5089833;28;20489;-65
2020/12/16 06:50:16;;;;;;;24.13;20.87;;;7.00;99.90;;;;;;5090012;28;20394;-65
2020/12/16 06:52:41;;;;;;;29.37;21.90;;;7.00;99.90;;;;;;5089877;28;20195;-65
2020/12/16 06:55:07;;;;;;;24.03;19.87;;;7.10;99.90;;;;;;5089136;28;20413;-65
2020/12/16 06:57:48;;;;;;;24.33;21.50;;;7.20;99.90;;;;;;5089839;28;20225;-66
2020/12/16 07:00:19;;;;;;;24.43;19.80;;;7.20;99.90;;;;;;5088698;28;20489;-65
2020/12/16 07:02:45;;;;;;;23.13;20.03;;;7.30;99.90;;;;;;5088462;28;20396;-66
2020/12/16 07:05:36;;;;;;;23.40;19.80;;;7.30;99.90;;;;;;5088188;28;20398;-65
2020/12/16 07:08:02;;;;;;;21.60;18.70;;;7.40;99.90;;;;;;5088284;28;20471;-65
2020/12/16 07:13:18;;;;;;;26.40;21.03;;;7.40;99.90;;;;;;5111217;27;20506;-65
2020/12/16 07:15:47;;;;;;;22.47;18.60;;;7.50;99.90;;;;;;5095432;28;20413;-65
2020/12/16 07:23:56;;;;;;;22.97;19.60;;;7.60;99.90;;;;;;5131410;27;20558;-64
2020/12/16 07:26:44;;;;;;;22.23;18.00;;;7.70;99.90;;;;;;5131278;27;20388;-65
2020/12/16 07:32:07;;;;;;;14.77;12.60;;;7.80;99.90;;;;;;5097822;27;20516;-65
2020/12/16 07:34:43;;;;;;;14.33;11.17;;;7.80;99.90;;;;;;5090563;28;20484;-65
2020/12/16 07:37:10;;;;;;;11.63;10.43;;;7.90;99.90;;;;;;5089476;28;20401;-65
2020/12/16 07:39:46;;;;;;;15.63;12.60;;;7.90;99.90;;;;;;5090500;28;20879;-66
2020/12/16 07:42:18;;;;;;;17.77;12.50;;;8.00;99.90;;;;;;5089732;28;20442;-66
2020/12/16 07:44:44;;;;;;;12.73;11.43;;;8.00;99.90;;;;;;5089368;28;20472;-65
2020/12/16 07:47:10;;;;;;;15.87;14.27;;;7.90;99.90;;;;;;5074353;28;20415;-65
2020/12/16 07:49:40;;;;;;;15.83;14.17;;;7.90;99.90;;;;;;5090157;28;20428;-65
2020/12/16 07:52:06;;;;;;;19.60;16.33;;;7.80;99.90;;;;;;5090142;28;20170;-66
2020/12/16 07:54:32;;;;;;;16.80;15.10;;;7.80;99.90;;;;;;5090113;28;20390;-66
2020/12/16 07:56:58;;;;;;;19.67;15.93;;;7.80;99.90;;;;;;5089104;28;20480;-65
2020/12/16 07:59:29;;;;;;;16.90;15.10;;;7.70;99.90;;;;;;5090392;28;20425;-65
2020/12/16 08:02:04;;;;;;;16.93;14.03;;;7.70;99.90;;;;;;5088626;28;20398;-65
2020/12/16 08:04:29;;;;;;;15.10;12.10;;;7.60;99.90;;;;;;5089541;28;20408;-65
2020/12/16 08:07:08;;;;;;;15.00;12.83;;;7.60;99.90;;;;;;5089439;28;20417;-65
2020/12/16 08:09:34;;;;;;;12.17;10.83;;;7.60;99.90;;;;;;5089703;28;20640;-66
2020/12/16 08:12:00;;;;;;;13.50;11.83;;;7.60;99.90;;;;;;5089886;28;20546;-66
2020/12/16 08:14:26;;;;;;;13.03;10.93;;;7.60;99.90;;;;;;5089348;28;20163;-66
2020/12/16 08:16:51;;;;;;;11.90;10.67;;;7.60;99.90;;;;;;5075049;28;20806;-66
2020/12/16 08:19:18;;;;;;;11.90;10.53;;;7.60;99.90;;;;;;5069132;28;20160;-66
2020/12/16 08:21:43;;;;;;;12.20;10.23;;;7.60;99.90;;;;;;5071065;28;20246;-66
2020/12/16 08:24:09;;;;;;;11.23;10.00;;;7.60;99.90;;;;;;5089752;28;20390;-66
2020/12/16 08:26:34;;;;;;;10.60;9.50;;;7.60;99.90;;;;;;5089352;28;20164;-66
2020/12/16 08:29:04;;;;;;;14.00;9.83;;;7.60;99.90;;;;;;5089118;28;20156;-66
2020/12/16 08:31:34;;;;;;;13.53;10.40;;;7.60;99.90;;;;;;5088875;28;20249;-66
2020/12/16 08:34:01;;;;;;;11.33;9.53;;;7.70;99.90;;;;;;5089376;28;20542;-66
2020/12/16 08:36:27;;;;;;;13.13;10.60;;;7.70;99.90;;;;;;5089232;28;20397;-66
2020/12/16 08:38:53;;;;;;;13.73;10.90;;;7.70;99.90;;;;;;5089311;28;20467;-65
2020/12/16 08:41:28;;;;;;;10.97;9.80;;;7.70;99.90;;;;;;5088275;28;20590;-65
2020/12/16 08:43:55;;;;;;;11.23;10.13;;;7.70;99.90;;;;;;5075536;28;20483;-65
2020/12/16 08:46:23;;;;;;;10.83;9.73;;;7.70;99.90;;;;;;5062631;28;20418;-65
2020/12/16 08:48:59;;;;;;;11.80;10.60;;;7.70;99.90;;;;;;5055373;28;20410;-65
2020/12/16 08:51:35;;;;;;;12.00;10.50;;;7.80;99.90;;;;;;5055769;28;20439;-66
2020/12/16 08:54:03;;;;;;;11.23;10.13;;;7.80;99.90;;;;;;5056050;28;20850;-65
2020/12/16 08:56:31;;;;;;;11.10;9.90;;;7.80;99.90;;;;;;5063363;28;20415;-65
2020/12/16 08:59:06;;;;;;;11.30;10.20;;;7.90;99.90;;;;;;5075465;28;20758;-65
2020/12/16 09:01:33;;;;;;;11.43;10.37;;;7.90;99.90;;;;;;5074158;28;20429;-65
2020/12/16 09:03:59;;;;;;;11.80;10.20;;;7.90;99.90;;;;;;5075283;28;20394;-65
2020/12/16 09:06:24;;;;;;;15.23;9.57;;;8.00;99.90;;;;;;5075194;28;20485;-66
2020/12/16 09:08:50;;;;;;;10.27;9.37;;;8.00;99.90;;;;;;5075090;28;20478;-66
2020/12/16 09:11:19;;;;;;;10.83;9.73;;;8.10;99.90;;;;;;5075048;28;20263;-66
2020/12/16 09:13:45;;;;;;;11.10;10.00;;;8.10;99.90;;;;;;5075113;28;20234;-66
2020/12/16 09:16:18;;;;;;;10.63;9.67;;;8.20;99.90;;;;;;5063843;28;20422;-65
2020/12/16 09:18:46;;;;;;;10.10;9.10;;;8.20;99.90;;;;;;5055191;28;20387;-66
2020/12/16 09:21:12;;;;;;;12.57;10.23;;;8.30;99.90;;;;;;5066447;28;20438;-66
2020/12/16 09:23:37;;;;;;;10.03;9.17;;;8.30;99.90;;;;;;5075152;28;20398;-65
2020/12/16 09:26:03;;;;;;;11.53;10.17;;;8.30;99.90;;;;;;5074738;28;20398;-65
2020/12/16 09:28:38;;;;;;;10.23;9.17;;;8.40;99.90;;;;;;5074692;28;20160;-65
2020/12/16 09:31:14;;;;;;;9.83;8.93;;;8.50;99.90;;;;;;5074494;28;20210;-65
2020/12/16 09:33:39;;;;;;;11.20;10.17;;;8.60;99.90;;;;;;5074650;28;20819;-66
2020/12/16 09:36:05;;;;;;;11.20;10.10;;;8.60;99.90;;;;;;5074655;28;20398;-66
2020/12/16 09:38:31;;;;;;;11.03;10.03;;;8.60;99.90;;;;;;5074526;28;20418;-65
2020/12/16 09:40:58;;;;;;;10.87;9.87;;;8.60;99.90;;;;;;5073332;28;20164;-66
2020/12/16 09:43:40;;;;;;;10.60;9.50;;;8.70;99.90;;;;;;5074492;28;20637;-66
2020/12/16 09:46:23;;;;;;;10.13;9.17;;;8.80;99.90;;;;;;5060655;28;20433;-65
2020/12/16 09:48:58;;;;;;;9.60;8.70;;;8.80;99.90;;;;;;5073512;28;20421;-66
2020/12/16 09:51:23;;;;;;;11.30;10.10;;;8.90;99.90;;;;;;5073846;28;20448;-65
2020/12/16 09:53:49;;;;;;;11.60;10.53;;;9.00;99.90;;;;;;5073204;28;20478;-65
2020/12/16 09:56:23;;;;;;;10.73;9.73;;;9.10;99.90;;;;;;5074499;28;20163;-66
2020/12/16 09:58:49;;;;;;;11.27;10.17;;;9.20;99.90;;;;;;5074321;28;20163;-66
2020/12/16 10:01:15;;;;;;;10.57;9.67;;;9.20;99.90;;;;;;5074180;28;20452;-66
2020/12/16 10:03:40;;;;;;;8.73;7.93;;;9.30;99.90;;;;;;5073772;28;20417;-66
2020/12/16 10:06:12;;;;;;;8.80;8.00;;;9.30;99.90;;;;;;5074248;28;20176;-66
2020/12/16 10:08:39;;;;;;;9.57;8.67;;;9.30;99.90;;;;;;5073857;28;20204;-65
2020/12/16 10:11:08;;;;;;;8.60;7.80;;;9.30;99.90;;;;;;5074104;28;20992;-66
2020/12/16 10:13:34;;;;;;;8.40;7.70;;;9.30;99.90;;;;;;5072652;28;20442;-65
2020/12/16 10:15:59;;;;;;;8.77;7.97;;;9.30;99.90;;;;;;5062045;28;20427;-66
2020/12/16 10:18:25;;;;;;;7.90;7.13;;;9.40;99.90;;;;;;5053965;28;20165;-66
2020/12/16 10:20:50;;;;;;;9.20;8.40;;;9.40;99.90;;;;;;5056928;28;20204;-65
2020/12/16 10:23:16;;;;;;;9.00;8.10;;;9.40;99.90;;;;;;5073465;28;20168;-65
2020/12/16 10:25:42;;;;;;;9.00;8.10;;;9.40;99.90;;;;;;5073624;28;20163;-66
2020/12/16 10:28:10;;;;;;;8.33;7.53;;;9.30;99.90;;;;;;5073442;28;20159;-65
2020/12/16 10:30:36;;;;;;;8.73;7.90;;;9.30;99.90;;;;;;5073186;28;20310;-66
2020/12/16 10:33:02;;;;;;;9.63;8.20;;;9.30;99.90;;;;;;5073437;28;20398;-66
2020/12/16 10:35:27;;;;;;;9.30;8.40;;;9.30;99.90;;;;;;5073535;28;20760;-66
2020/12/16 10:37:53;;;;;;;7.90;7.20;;;9.30;99.90;;;;;;5073198;28;20172;-65
2020/12/16 10:40:19;;;;;;;8.33;7.60;;;9.50;99.90;;;;;;5073142;28;20164;-66
2020/12/16 10:42:45;;;;;;;8.13;7.43;;;9.50;99.90;;;;;;5073362;28;20196;-66
2020/12/16 10:45:10;;;;;;;7.77;7.03;;;9.60;99.90;;;;;;5072725;28;20551;-66
2020/12/16 10:47:36;;;;;;;7.90;7.20;;;9.70;99.90;;;;;;5073156;28;20160;-65
2020/12/16 10:50:03;;;;;;;8.87;8.10;;;9.70;99.90;;;;;;5072991;28;20191;-65
2020/12/16 10:52:29;;;;;;;10.40;9.43;;;9.70;99.90;;;;;;5073194;28;20145;-65
2020/12/16 10:54:55;;;;;;;8.60;7.80;;;9.70;99.90;;;;;;5072165;28;20521;-66
2020/12/16 10:57:20;;;;;;;9.80;8.90;;;9.80;99.90;;;;;;5073101;28;20485;-66
2020/12/16 10:59:47;;;;;;;8.20;7.40;;;9.80;99.90;;;;;;5072795;28;20831;-66
2020/12/16 11:02:13;;;;;;;9.93;8.93;;;9.80;99.90;;;;;;5073504;28;20521;-66
2020/12/16 11:04:38;;;;;;;8.90;7.93;;;9.80;99.90;;;;;;5072894;28;20391;-66
2020/12/16 11:07:04;;;;;;;8.07;7.23;;;9.90;99.90;;;;;;5073280;28;20166;-66
2020/12/16 11:09:29;;;;;;;10.90;9.90;;;9.90;99.90;;;;;;5072887;28;20149;-66
2020/12/16 11:11:55;;;;;;;7.80;7.10;;;9.90;99.90;;;;;;5072587;28;20271;-66
2020/12/16 11:14:21;;;;;;;6.70;6.00;;;9.90;99.90;;;;;;5072577;28;20572;-66
2020/12/16 11:16:47;;;;;;;6.83;6.30;;;9.90;99.90;;;;;;5053035;28;20243;-66
2020/12/16 11:19:15;;;;;;;7.20;6.53;;;9.90;99.90;;;;;;5052893;28;20445;-66
2020/12/16 11:21:42;;;;;;;9.90;8.90;;;9.90;99.90;;;;;;5051618;28;20762;-65
2020/12/16 11:24:09;;;;;;;8.60;7.80;;;9.90;99.90;;;;;;5052695;28;20449;-66
2020/12/16 11:26:38;;;;;;;9.20;8.40;;;10.00;99.90;;;;;;5052724;28;20451;-66
2020/12/16 11:29:05;;;;;;;11.60;10.50;;;10.00;99.90;;;;;;5057052;28;20414;-66
2020/12/16 11:31:30;;;;;;;7.83;7.13;;;10.00;99.90;;;;;;5072744;28;20552;-65
2020/12/16 11:33:56;;;;;;;7.10;6.50;;;10.10;99.90;;;;;;5072885;28;20813;-66
2020/12/16 11:36:21;;;;;;;8.70;6.93;;;10.10;99.90;;;;;;5072777;28;20238;-66
2020/12/16 11:38:47;;;;;;;7.97;7.17;;;10.10;99.90;;;;;;5072766;28;20205;-66
2020/12/16 11:41:12;;;;;;;8.93;8.13;;;10.10;99.90;;;;;;5072734;28;20170;-66
2020/12/16 11:43:38;;;;;;;7.40;6.70;;;10.10;99.90;;;;;;5072889;28;20156;-66
2020/12/16 11:46:03;;;;;;;7.43;6.83;;;10.10;99.90;;;;;;5060776;28;20648;-65
2020/12/16 11:48:29;;;;;;;8.70;7.70;;;10.10;99.90;;;;;;5072642;28;20168;-65
2020/12/16 11:50:54;;;;;;;8.73;7.93;;;10.10;99.90;;;;;;5072644;28;20191;-65
2020/12/16 11:53:20;;;;;;;6.90;6.30;;;10.10;99.90;;;;;;5072713;28;20609;-65
2020/12/16 11:55:46;;;;;;;7.10;6.40;;;10.10;99.90;;;;;;5072673;28;20255;-66
2020/12/16 11:58:11;;;;;;;7.03;6.43;;;10.10;99.90;;;;;;5072993;28;20505;-66
2020/12/16 12:00:37;;;;;;;8.10;7.37;;;10.20;99.90;;;;;;5072722;28;20565;-65
2020/12/16 12:03:03;;;;;;;6.60;6.00;;;10.20;99.90;;;;;;5072259;28;20258;-65
2020/12/16 12:05:28;;;;;;;7.47;6.87;;;10.30;99.90;;;;;;5072323;28;20164;-66
2020/12/16 12:07:54;;;;;;;7.10;6.50;;;10.30;99.90;;;;;;5072454;28;20456;-66
2020/12/16 12:10:19;;;;;;;6.83;6.23;;;10.40;99.90;;;;;;5072194;28;20237;-66
2020/12/16 12:12:45;;;;;;;6.40;5.80;;;10.50;99.90;;;;;;5072741;28;20163;-66
2020/12/16 12:15:11;;;;;;;6.00;5.50;;;10.60;99.90;;;;;;5063084;28;20203;-66
2020/12/16 12:17:37;;;;;;;5.90;5.40;;;10.70;99.90;;;;;;5053764;28;20161;-66
2020/12/16 12:20:04;;;;;;;6.90;6.20;;;10.70;99.90;;;;;;5060821;28;20987;-65
2020/12/16 12:22:29;;;;;;;5.83;5.33;;;10.80;99.90;;;;;;5075921;28;20835;-65
2020/12/16 12:24:55;;;;;;;6.03;5.53;;;10.80;99.90;;;;;;5075952;28;20393;-66
2020/12/16 12:27:20;;;;;;;6.00;5.50;;;10.90;99.90;;;;;;5060107;28;20169;-66
2020/12/16 12:29:46;;;;;;;6.97;6.37;;;10.90;99.90;;;;;;5055650;28;20167;-65
2020/12/16 12:32:13;;;;;;;6.77;6.17;;;11.00;99.90;;;;;;5055800;28;20149;-65
2020/12/16 12:34:38;;;;;;;13.10;11.80;;;11.00;99.90;;;;;;5055884;28;20168;-65
2020/12/16 12:37:04;;;;;;;7.73;7.07;;;11.00;99.90;;;;;;5060536;28;20775;-65
2020/12/16 12:39:29;;;;;;;7.50;6.90;;;11.10;99.90;;;;;;5075928;28;20171;-66
2020/12/16 12:41:55;;;;;;;6.70;6.10;;;11.10;99.90;;;;;;5075893;28;20160;-65
2020/12/16 12:44:20;;;;;;;6.97;6.33;;;11.10;99.90;;;;;;5073210;28;20164;-65
2020/12/16 12:46:48;;;;;;;5.97;5.47;;;11.10;99.90;;;;;;5055540;28;20200;-65
2020/12/16 12:49:15;;;;;;;6.70;6.10;;;11.10;99.90;;;;;;5055521;28;20164;-66
2020/12/16 12:51:41;;;;;;;7.80;6.47;;;11.10;99.90;;;;;;5055572;28;20443;-66
2020/12/16 12:54:07;;;;;;;7.07;6.17;;;11.20;99.90;;;;;;5061117;28;20410;-66
2020/12/16 12:56:33;;;;;;;5.80;5.30;;;11.20;99.90;;;;;;5075371;28;20390;-66
2020/12/16 12:58:58;;;;;;;6.20;5.70;;;11.20;99.90;;;;;;5075754;28;20148;-66
2020/12/16 13:01:24;;;;;;;5.40;4.90;;;11.20;99.90;;;;;;5075195;28;20164;-65
2020/12/16 13:03:50;;;;;;;5.40;5.00;;;11.20;99.90;;;;;;5075498;28;20206;-66